createdAt,value
2018-10-05T00:01:01.598Z,80.10
2018-10-05T00:03:29.686Z,80.10
2018-10-05T00:05:57.982Z,80.20
2018-10-05T00:08:26.131Z,80.70
2018-10-05T00:10:54.203Z,80.20
2018-10-05T00:13:22.315Z,80.40
2018-10-05T00:15:50.423Z,80.80
2018-10-05T00:18:18.783Z,80.60
2018-10-05T00:20:46.898Z,80.20
2018-10-05T00:23:15.038Z,80.70
2018-10-05T00:25:43.134Z,80.60
2018-10-05T00:28:11.244Z,80.00
2018-10-05T00:30:39.330Z,80.50
2018-10-05T00:33:07.478Z,80.30
2018-10-05T00:35:35.631Z,80.60
2018-10-05T00:38:03.787Z,80.60
2018-10-05T00:40:31.815Z,80.60
2018-10-05T00:43:00.127Z,80.40
2018-10-05T00:45:28.207Z,80.80
2018-10-05T00:47:56.302Z,81.00
2018-10-05T00:50:24.411Z,80.70
2018-10-05T00:52:52.566Z,80.60
2018-10-05T00:55:20.594Z,80.10
2018-10-05T00:57:48.767Z,80.90
2018-10-05T01:00:16.862Z,80.60
2018-10-05T01:02:44.958Z,80.90
2018-10-05T01:05:13.053Z,80.70
2018-10-05T01:07:41.159Z,80.40
2018-10-05T01:10:09.442Z,80.70
2018-10-05T01:12:37.570Z,80.70
2018-10-05T01:15:05.678Z,80.60
2018-10-05T01:17:33.796Z,80.60
2018-10-05T01:20:01.891Z,80.80
2018-10-05T01:22:29.994Z,80.70
2018-10-05T01:24:58.117Z,81.00
2018-10-05T01:27:26.194Z,81.00
2018-10-05T01:29:54.313Z,81.20
2018-10-05T01:32:22.463Z,81.10
2018-10-05T01:34:50.568Z,81.00
2018-10-05T01:37:18.675Z,80.90
2018-10-05T01:39:46.770Z,81.00
2018-10-05T01:42:14.872Z,80.70
2018-10-05T01:44:42.982Z,81.20
2018-10-05T01:47:11.102Z,81.40
2018-10-05T01:49:39.233Z,81.30
2018-10-05T01:52:07.342Z,81.80
2018-10-05T01:54:35.454Z,81.60
2018-10-05T01:57:03.563Z,81.40
2018-10-05T01:59:31.686Z,81.20
2018-10-05T02:01:59.954Z,81.10
2018-10-05T02:04:28.090Z,81.70
2018-10-05T02:06:56.182Z,81.20
2018-10-05T02:09:24.294Z,81.20
2018-10-05T02:11:52.451Z,81.60
2018-10-05T02:14:20.547Z,81.90
2018-10-05T02:16:48.673Z,81.70
2018-10-05T02:19:16.818Z,81.90
2018-10-05T02:21:44.918Z,81.50
2018-10-05T02:24:13.030Z,81.30
2018-10-05T02:26:41.130Z,81.70
2018-10-05T02:29:09.243Z,81.10
2018-10-05T02:31:37.363Z,81.10
2018-10-05T02:34:05.634Z,81.40
2018-10-05T02:36:33.733Z,81.40
2018-10-05T02:39:01.832Z,81.50
2018-10-05T02:41:30.009Z,81.60
2018-10-05T02:43:58.034Z,81.50
2018-10-05T02:46:26.135Z,81.50
2018-10-05T02:48:54.323Z,81.30
2018-10-05T02:51:22.422Z,81.60
2018-10-05T02:53:50.530Z,81.30
2018-10-05T02:56:18.634Z,81.60
2018-10-05T02:58:46.718Z,82.40
2018-10-05T03:01:26.154Z,81.50
2018-10-05T03:03:54.369Z,81.60
2018-10-05T03:06:22.470Z,81.80
2018-10-05T03:08:50.570Z,81.60
2018-10-05T03:11:18.690Z,81.70
2018-10-05T03:13:46.825Z,81.70
2018-10-05T03:16:14.956Z,81.90
2018-10-05T03:18:43.050Z,81.90
2018-10-05T03:21:11.146Z,81.60
2018-10-05T03:23:39.267Z,81.60
2018-10-05T03:26:07.382Z,81.80
2018-10-05T03:28:35.483Z,81.80
2018-10-05T03:31:03.578Z,81.90
2018-10-05T03:33:31.734Z,82.10
2018-10-05T03:35:59.898Z,82.30
2018-10-05T03:38:28.009Z,81.90
2018-10-05T03:40:56.121Z,82.80
2018-10-05T03:43:24.666Z,82.10
2018-10-05T03:45:52.985Z,82.40
2018-10-05T03:48:21.102Z,82.60
2018-10-05T03:50:49.276Z,82.40
2018-10-05T03:53:17.372Z,82.50
2018-10-05T03:55:45.490Z,82.30
2018-10-05T03:58:13.595Z,82.40
2018-10-05T04:00:41.685Z,82.20
2018-10-05T04:03:09.883Z,83.30
2018-10-05T04:05:38.039Z,82.30
2018-10-05T04:08:06.158Z,82.90
2018-10-05T04:10:34.355Z,82.80
2018-10-05T04:13:02.426Z,82.40
2018-10-05T04:15:30.618Z,82.50
2018-10-05T04:17:58.710Z,82.90
2018-10-05T04:20:26.797Z,83.10
2018-10-05T04:22:54.871Z,83.00
2018-10-05T04:25:22.947Z,82.70
2018-10-05T04:27:51.098Z,82.70
2018-10-05T04:30:19.186Z,82.60
2018-10-05T04:32:47.281Z,81.90
2018-10-05T04:35:15.334Z,82.20
2018-10-05T04:37:43.407Z,82.50
2018-10-05T04:40:11.559Z,82.50
2018-10-05T04:42:39.698Z,82.60
2018-10-05T04:45:07.882Z,82.70
2018-10-05T04:47:35.955Z,82.60
2018-10-05T04:50:04.151Z,82.60
2018-10-05T04:52:32.218Z,82.80
2018-10-05T04:55:00.282Z,82.60
2018-10-05T04:57:28.371Z,83.10
2018-10-05T04:59:56.448Z,82.50
2018-10-05T05:02:24.543Z,82.60
2018-10-05T05:04:52.670Z,82.90
2018-10-05T05:07:20.762Z,82.80
2018-10-05T05:09:48.941Z,82.80
2018-10-05T05:12:17.076Z,82.60
2018-10-05T05:14:45.138Z,82.80
2018-10-05T05:17:13.226Z,82.80
2018-10-05T05:19:41.373Z,82.70
2018-10-05T05:22:09.441Z,82.80
2018-10-05T05:24:37.527Z,83.60
2018-10-05T05:27:05.606Z,82.80
2018-10-05T05:29:33.746Z,82.90
2018-10-05T05:32:01.846Z,82.80
2018-10-05T05:34:29.922Z,82.90
2018-10-05T05:36:57.999Z,82.80
2018-10-05T05:39:26.068Z,83.20
2018-10-05T05:41:54.162Z,82.90
2018-10-05T05:44:22.312Z,83.60
2018-10-05T05:46:50.489Z,84.30
2018-10-05T05:49:18.659Z,83.20
2018-10-05T05:51:46.760Z,83.40
2018-10-05T05:54:14.839Z,83.40
2018-10-05T05:56:42.914Z,83.20
2018-10-05T05:59:10.977Z,83.30
2018-10-05T06:01:39.051Z,83.20
2018-10-05T06:04:07.142Z,83.20
2018-10-05T06:06:35.274Z,83.10
2018-10-05T06:09:05.042Z,83.60
2018-10-05T06:11:33.168Z,84.00
2018-10-05T06:14:01.221Z,84.10
2018-10-05T06:16:29.317Z,83.60
2018-10-05T06:18:57.519Z,84.00
2018-10-05T06:21:25.609Z,84.20
2018-10-05T06:23:53.654Z,84.00
2018-10-05T06:26:21.744Z,83.60
2018-10-05T06:28:49.818Z,84.30
2018-10-05T06:31:18.011Z,84.10
2018-10-05T06:33:45.987Z,84.40
2018-10-05T06:36:14.070Z,84.50
2018-10-05T06:38:42.142Z,84.80
2018-10-05T06:41:10.211Z,84.80
2018-10-05T06:43:38.289Z,84.60
2018-10-05T06:46:06.400Z,84.90
2018-10-05T06:48:34.475Z,85.30
2018-10-05T06:51:02.573Z,85.40
2018-10-05T06:53:30.702Z,86.00
2018-10-05T06:55:58.814Z,85.20
2018-10-05T06:58:26.897Z,82.00
2018-10-05T07:00:54.962Z,78.60
2018-10-05T07:03:23.030Z,77.80
2018-10-05T07:05:51.134Z,78.50
2018-10-05T07:08:19.206Z,80.00
2018-10-05T07:10:47.274Z,80.60
2018-10-05T07:13:15.362Z,81.50
2018-10-05T07:15:43.512Z,82.00
2018-10-05T07:18:11.553Z,82.20
2018-10-05T07:20:39.629Z,82.90
2018-10-05T07:23:07.752Z,84.10
2018-10-05T07:25:35.813Z,84.00
2018-10-05T07:28:03.933Z,84.90
2018-10-05T07:30:31.987Z,85.30
2018-10-05T07:33:00.063Z,85.70
2018-10-05T07:35:28.278Z,85.80
2018-10-05T07:37:56.346Z,86.60
2018-10-05T07:40:24.422Z,87.00
2018-10-05T07:42:52.557Z,88.40
2018-10-05T07:45:20.585Z,87.60
2018-10-05T07:47:48.701Z,88.10
2018-10-05T07:50:16.753Z,88.70
2018-10-05T07:52:44.827Z,89.20
2018-10-05T07:55:12.923Z,89.80
2018-10-05T07:57:41.158Z,89.90
2018-10-05T08:00:09.095Z,90.40
2018-10-05T08:02:37.190Z,90.40
2018-10-05T08:05:05.276Z,91.10
2018-10-05T08:07:33.363Z,92.50
2018-10-05T08:10:01.463Z,93.80
2018-10-05T08:12:29.535Z,98.60
2018-10-05T08:14:57.662Z,99.90
2018-10-05T08:17:25.859Z,97.50
2018-10-05T08:19:53.955Z,93.90
2018-10-05T08:22:22.047Z,93.00
2018-10-05T08:24:50.130Z,91.50
2018-10-05T08:27:18.206Z,89.90
2018-10-05T08:29:46.306Z,87.90
2018-10-05T08:32:14.463Z,87.30
2018-10-05T08:34:42.548Z,85.80
2018-10-05T08:37:10.634Z,85.30
2018-10-05T08:39:38.713Z,83.80
2018-10-05T08:42:06.835Z,84.00
2018-10-05T08:44:34.933Z,84.00
2018-10-05T08:47:03.006Z,83.40
2018-10-05T08:49:31.087Z,84.30
2018-10-05T08:51:59.236Z,83.70
2018-10-05T08:54:27.261Z,83.60
2018-10-05T08:56:55.331Z,84.00
2018-10-05T08:59:23.421Z,82.90
2018-10-05T09:01:51.514Z,82.50
2018-10-05T09:04:19.600Z,82.60
2018-10-05T09:06:47.766Z,82.30
2018-10-05T09:09:15.931Z,81.80
2018-10-05T09:11:44.039Z,81.60
2018-10-05T09:14:12.127Z,82.10
2018-10-05T09:16:40.199Z,80.40
2018-10-05T09:19:11.915Z,79.70
2018-10-05T09:21:39.991Z,79.00
2018-10-05T09:24:08.091Z,78.60
2018-10-05T09:26:36.162Z,79.10
2018-10-05T09:29:04.248Z,77.50
2018-10-05T09:31:32.326Z,77.10
2018-10-05T09:34:00.434Z,77.90
2018-10-05T09:36:28.520Z,75.90
2018-10-05T09:38:56.595Z,75.30
2018-10-05T09:41:24.678Z,75.40
2018-10-05T09:43:52.749Z,74.30
2018-10-05T09:46:20.875Z,73.90
2018-10-05T09:48:49.039Z,72.80
2018-10-05T09:51:17.230Z,71.50
2018-10-05T09:53:45.326Z,72.80
2018-10-05T09:56:13.438Z,72.60
2018-10-05T09:58:41.545Z,68.80
2018-10-05T10:01:15.213Z,70.10
2018-10-05T10:03:43.347Z,69.50
2018-10-05T10:06:11.446Z,70.40
2018-10-05T10:08:39.690Z,69.10
2018-10-05T10:11:07.803Z,67.20
2018-10-05T10:13:35.951Z,66.70
2018-10-05T10:16:04.061Z,66.90
2018-10-05T10:18:32.174Z,66.70
2018-10-05T10:21:00.271Z,65.00
2018-10-05T10:23:28.383Z,64.10
2018-10-05T10:25:56.516Z,63.40
2018-10-05T10:28:24.688Z,62.60
2018-10-05T10:30:52.707Z,60.80
2018-10-05T10:33:20.843Z,60.00
2018-10-05T10:35:48.994Z,59.00
2018-10-05T10:38:17.155Z,58.70
2018-10-05T10:40:45.436Z,57.00
2018-10-05T10:43:13.538Z,56.50
2018-10-05T10:45:41.682Z,55.60
2018-10-05T10:48:09.799Z,54.40
2018-10-05T10:50:37.909Z,51.70
2018-10-05T10:53:06.170Z,52.80
2018-10-05T10:55:34.340Z,51.80
2018-10-05T10:58:02.364Z,50.50
2018-10-05T11:00:30.586Z,49.70
2018-10-05T11:02:58.706Z,49.50
2018-10-05T11:05:26.799Z,49.10
2018-10-05T11:07:54.999Z,48.40
2018-10-05T11:10:23.126Z,48.00
2018-10-05T11:12:51.234Z,47.20
2018-10-05T11:15:19.434Z,46.40
2018-10-05T11:17:47.549Z,45.90
2018-10-05T11:20:15.678Z,44.60
2018-10-05T11:22:43.808Z,43.80
2018-10-05T11:25:12.003Z,44.10
2018-10-05T11:27:40.097Z,42.80
2018-10-05T11:30:08.590Z,42.70
2018-10-05T11:32:36.776Z,42.90
2018-10-05T11:35:05.291Z,42.30
2018-10-05T11:37:33.381Z,40.80
2018-10-05T11:40:01.524Z,40.60
2018-10-05T11:42:30.469Z,39.90
2018-10-05T11:44:58.738Z,40.10
2018-10-05T11:47:26.843Z,39.60
2018-10-05T11:49:55.095Z,39.10
2018-10-05T11:52:23.286Z,37.50
2018-10-05T11:54:51.427Z,38.40
2018-10-05T11:57:19.594Z,38.00
2018-10-05T11:59:47.810Z,37.60
2018-10-05T12:02:15.882Z,36.80
2018-10-05T12:04:44.024Z,36.50
2018-10-05T12:07:12.139Z,36.30
2018-10-05T12:09:40.242Z,34.90
2018-10-05T12:12:08.382Z,35.50
2018-10-05T12:14:36.590Z,34.60
2018-10-05T12:17:04.695Z,34.90
2018-10-05T12:19:32.819Z,34.80
2018-10-05T12:22:00.943Z,34.50
2018-10-05T12:24:29.073Z,34.20
2018-10-05T12:26:57.288Z,33.20
2018-10-05T12:29:25.424Z,33.30
2018-10-05T12:31:53.558Z,33.00
2018-10-05T12:34:21.663Z,31.90
2018-10-05T12:36:50.022Z,32.40
2018-10-05T12:39:18.139Z,31.40
2018-10-05T12:41:46.263Z,31.80
2018-10-05T12:44:14.355Z,32.80
2018-10-05T12:46:42.429Z,31.00
2018-10-05T12:49:10.567Z,31.70
2018-10-05T12:51:38.951Z,31.00
2018-10-05T12:54:07.055Z,31.20
2018-10-05T12:56:35.152Z,30.90
2018-10-05T12:59:03.302Z,30.70
2018-10-05T13:01:31.411Z,30.70
2018-10-05T13:03:59.521Z,30.80
2018-10-05T13:06:27.732Z,30.70
2018-10-05T13:08:55.981Z,30.10
2018-10-05T13:11:24.114Z,30.20
2018-10-05T13:13:52.226Z,30.10
2018-10-05T13:16:20.443Z,30.20
2018-10-05T13:18:48.555Z,30.10
2018-10-05T13:21:18.738Z,29.90
2018-10-05T13:23:47.125Z,30.20
2018-10-05T13:26:15.266Z,30.10
2018-10-05T13:28:43.474Z,29.90
2018-10-05T13:31:11.630Z,29.90
2018-10-05T13:33:39.715Z,29.60
2018-10-05T13:36:07.826Z,30.00
2018-10-05T13:38:36.019Z,28.80
2018-10-05T13:41:04.071Z,29.40
2018-10-05T13:43:32.178Z,29.40
2018-10-05T13:46:00.283Z,28.30
2018-10-05T13:48:28.362Z,29.30
2018-10-05T13:50:56.516Z,29.20
2018-10-05T13:53:24.632Z,29.10
2018-10-05T13:55:52.690Z,28.60
2018-10-05T13:58:20.932Z,29.50
2018-10-05T14:00:49.079Z,29.30
2018-10-05T14:03:17.411Z,29.50
2018-10-05T14:05:45.537Z,29.50
2018-10-05T14:08:13.635Z,29.10
2018-10-05T14:10:41.932Z,29.40
2018-10-05T14:13:09.979Z,29.20
2018-10-05T14:15:38.111Z,29.40
2018-10-05T14:18:06.280Z,29.20
2018-10-05T14:20:34.575Z,29.50
2018-10-05T14:23:02.624Z,29.50
2018-10-05T14:25:30.784Z,29.80
2018-10-05T14:27:58.822Z,30.00
2018-10-05T14:30:26.957Z,29.90
2018-10-05T14:32:55.052Z,30.00
2018-10-05T14:35:23.143Z,30.20
2018-10-05T14:37:51.323Z,30.80
2018-10-05T14:40:19.371Z,30.50
2018-10-05T14:42:47.499Z,31.30
2018-10-05T14:45:15.593Z,30.70
2018-10-05T14:47:43.671Z,31.20
2018-10-05T14:50:11.776Z,31.40
2018-10-05T14:52:39.866Z,32.00
2018-10-05T14:55:07.966Z,31.60
2018-10-05T14:57:36.138Z,32.00
2018-10-05T15:00:04.253Z,32.20
2018-10-05T15:02:32.366Z,32.50
2018-10-05T15:05:00.458Z,32.80
2018-10-05T15:07:28.546Z,32.70
2018-10-05T15:09:56.667Z,33.50
2018-10-05T15:12:24.790Z,33.80
2018-10-05T15:14:52.902Z,33.70
2018-10-05T15:17:21.014Z,34.40
2018-10-05T15:19:49.385Z,35.00
2018-10-05T15:22:17.482Z,34.60
2018-10-05T15:24:45.594Z,34.70
2018-10-05T15:27:13.723Z,34.90
2018-10-05T15:29:41.823Z,35.40
2018-10-05T15:32:09.998Z,35.50
2018-10-05T15:34:38.432Z,35.60
2018-10-05T15:37:12.134Z,36.20
2018-10-05T15:39:40.295Z,36.50
2018-10-05T15:42:08.402Z,36.60
2018-10-05T15:44:36.494Z,36.90
2018-10-05T15:47:05.929Z,37.20
2018-10-05T15:49:34.625Z,37.50
2018-10-05T15:52:02.858Z,37.60
2018-10-05T15:54:31.030Z,38.30
2018-10-05T15:56:59.122Z,38.20
2018-10-05T15:59:27.896Z,38.50
2018-10-05T16:01:56.266Z,38.80
2018-10-05T16:04:24.383Z,39.00
2018-10-05T16:06:52.498Z,40.50
2018-10-05T16:09:20.887Z,41.10
2018-10-05T16:11:49.054Z,41.30
2018-10-05T16:14:18.463Z,42.10
2018-10-05T16:16:46.614Z,42.40
2018-10-05T16:19:14.749Z,42.80
2018-10-05T16:21:42.982Z,43.60
2018-10-05T16:24:19.507Z,44.00
2018-10-05T16:26:47.723Z,44.40
2018-10-05T16:29:15.838Z,44.70
2018-10-05T16:31:44.073Z,45.50
2018-10-05T16:34:12.178Z,45.70
2018-10-05T16:36:40.560Z,46.00
2018-10-05T16:39:09.994Z,46.70
2018-10-05T16:41:38.083Z,47.10
2018-10-05T16:44:06.266Z,47.20
2018-10-05T16:46:35.579Z,47.70
2018-10-05T16:49:03.707Z,47.80
2018-10-05T16:51:31.871Z,48.10
2018-10-05T16:54:00.031Z,48.50
2018-10-05T16:56:28.128Z,48.50
2018-10-05T16:58:56.238Z,48.90
2018-10-05T17:01:24.338Z,49.00
2018-10-05T17:03:52.491Z,49.30
2018-10-05T17:06:20.602Z,49.90
2018-10-05T17:08:50.424Z,50.20
2018-10-05T17:11:18.518Z,50.20
2018-10-05T17:13:46.640Z,50.50
2018-10-05T17:16:14.726Z,50.70
2018-10-05T17:18:42.824Z,51.10
2018-10-05T17:21:10.942Z,51.20
2018-10-05T17:23:39.082Z,51.60
2018-10-05T17:26:07.202Z,51.60
2018-10-05T17:28:35.318Z,51.90
2018-10-05T17:31:03.413Z,52.30
2018-10-05T17:33:31.511Z,52.80
2018-10-05T17:35:59.628Z,52.70
2018-10-05T17:38:27.731Z,52.90
2018-10-05T17:40:55.854Z,53.00
2018-10-05T17:43:23.982Z,53.20
2018-10-05T17:45:52.089Z,53.80
2018-10-05T17:48:20.194Z,54.00
2018-10-05T17:50:48.281Z,54.50
2018-10-05T17:53:16.382Z,54.20
2018-10-05T17:55:44.605Z,54.60
2018-10-05T17:58:12.625Z,55.00
2018-10-05T18:00:40.743Z,55.00
2018-10-05T18:03:08.857Z,54.80
2018-10-05T18:05:36.964Z,55.90
2018-10-05T18:08:05.079Z,56.00
2018-10-05T18:10:33.208Z,56.10
2018-10-05T18:13:01.302Z,56.20
2018-10-05T18:15:29.416Z,56.60
2018-10-05T18:17:57.646Z,56.80
2018-10-05T18:20:25.813Z,56.70
2018-10-05T18:22:53.858Z,56.80
2018-10-05T18:25:21.982Z,57.30
2018-10-05T18:27:50.146Z,57.50
2018-10-05T18:30:18.242Z,57.60
2018-10-05T18:32:46.354Z,58.20
2018-10-05T18:35:14.479Z,57.30
2018-10-05T18:37:42.584Z,58.80
2018-10-05T18:40:11.158Z,58.70
2018-10-05T18:42:39.254Z,58.50
2018-10-05T18:45:07.945Z,59.20
2018-10-05T18:47:36.074Z,58.80
2018-10-05T18:50:04.174Z,59.20
2018-10-05T18:52:32.273Z,59.20
2018-10-05T18:55:00.391Z,59.60
2018-10-05T18:57:28.506Z,59.80
2018-10-05T18:59:56.606Z,59.50
2018-10-05T19:02:24.726Z,60.40
2018-10-05T19:04:52.838Z,60.00
2018-10-05T19:07:20.946Z,61.40
2018-10-05T19:09:49.225Z,61.80
2018-10-05T19:12:17.362Z,61.50
2018-10-05T19:14:45.465Z,62.40
2018-10-05T19:17:13.627Z,62.50
2018-10-05T19:19:41.756Z,62.00
2018-10-05T19:22:09.884Z,62.50
2018-10-05T19:24:38.325Z,62.50
2018-10-05T19:27:06.436Z,62.30
2018-10-05T19:29:34.586Z,62.00
2018-10-05T19:32:02.739Z,63.10
2018-10-05T19:34:30.919Z,62.20
2018-10-05T19:36:59.018Z,63.00
2018-10-05T19:39:27.441Z,63.30
2018-10-05T19:41:55.627Z,64.00
2018-10-05T19:44:23.684Z,64.20
2018-10-05T19:46:51.842Z,65.10
2018-10-05T19:49:19.918Z,64.50
2018-10-05T19:51:48.181Z,64.40
2018-10-05T19:54:16.423Z,64.90
2018-10-05T19:56:44.526Z,66.10
2018-10-05T19:59:12.928Z,64.30
2018-10-05T20:01:41.087Z,65.40
2018-10-05T20:04:09.231Z,66.70
2018-10-05T20:06:37.373Z,66.60
2018-10-05T20:09:06.663Z,67.20
2018-10-05T20:11:34.847Z,67.10
2018-10-05T20:14:02.954Z,67.00
2018-10-05T20:16:31.157Z,67.00
2018-10-05T20:18:59.297Z,66.10
2018-10-05T20:21:27.435Z,67.60
2018-10-05T20:23:55.746Z,68.00
2018-10-05T20:26:23.925Z,67.80
2018-10-05T20:28:52.119Z,67.30
2018-10-05T20:31:20.319Z,68.80
2018-10-05T20:33:48.446Z,68.70
2018-10-05T20:36:16.793Z,70.60
2018-10-05T20:38:44.740Z,68.80
2018-10-05T20:41:12.854Z,68.90
2018-10-05T20:43:41.027Z,69.00
2018-10-05T20:46:09.360Z,69.10
2018-10-05T20:48:37.507Z,68.20
2018-10-05T20:51:05.722Z,68.50
2018-10-05T20:53:33.936Z,69.80
2018-10-05T20:56:02.150Z,69.20
2018-10-05T20:58:30.270Z,68.60
2018-10-05T21:00:58.374Z,69.70
2018-10-05T21:03:26.484Z,69.70
2018-10-05T21:05:54.590Z,69.80
2018-10-05T21:08:22.709Z,69.80
2018-10-05T21:10:50.815Z,70.70
2018-10-05T21:13:18.965Z,70.60
2018-10-05T21:15:50.969Z,70.40
2018-10-05T21:18:19.085Z,70.50
2018-10-05T21:20:47.208Z,70.50
2018-10-05T21:23:15.388Z,70.80
2018-10-05T21:25:43.511Z,70.70
2018-10-05T21:28:11.664Z,71.50
2018-10-05T21:30:39.762Z,71.80
2018-10-05T21:33:08.000Z,71.50
2018-10-05T21:35:36.068Z,70.50
2018-10-05T21:38:04.185Z,71.80
2018-10-05T21:40:32.284Z,72.20
2018-10-05T21:43:04.145Z,70.70
2018-10-05T21:45:32.255Z,71.30
2018-10-05T21:48:00.397Z,71.40
2018-10-05T21:50:28.542Z,71.40
2018-10-05T21:52:56.643Z,71.40
2018-10-05T21:55:24.742Z,72.00
2018-10-05T21:57:52.866Z,72.00
2018-10-05T22:00:20.978Z,71.70
2018-10-05T22:02:49.090Z,72.60
2018-10-05T22:05:17.223Z,72.20
2018-10-05T22:07:45.319Z,73.30
2018-10-05T22:10:13.453Z,72.70
2018-10-05T22:12:41.575Z,73.30
2018-10-05T22:15:09.686Z,73.30
2018-10-05T22:17:37.787Z,73.20
2018-10-05T22:20:05.926Z,73.50
2018-10-05T22:22:33.954Z,75.00
2018-10-05T22:25:02.055Z,73.90
2018-10-05T22:27:30.150Z,73.80
2018-10-05T22:29:58.246Z,74.20
2018-10-05T22:32:26.314Z,74.00
2018-10-05T22:34:54.438Z,73.50
2018-10-05T22:37:22.502Z,73.80
2018-10-05T22:39:50.649Z,74.40
2018-10-05T22:42:18.750Z,74.00
2018-10-05T22:44:46.860Z,73.00
2018-10-05T22:47:14.930Z,72.90
2018-10-05T22:49:43.019Z,73.60
2018-10-05T22:52:11.186Z,74.00
2018-10-05T22:54:39.303Z,74.20
2018-10-05T22:57:07.808Z,75.00
2018-10-05T22:59:35.898Z,74.90
2018-10-05T23:02:03.975Z,74.10
2018-10-05T23:04:32.070Z,74.10
2018-10-05T23:07:00.150Z,74.60
2018-10-05T23:09:28.257Z,74.90
2018-10-05T23:11:56.508Z,75.20
2018-10-05T23:14:24.593Z,75.50
2018-10-05T23:16:52.684Z,74.70
2018-10-05T23:19:20.966Z,75.20
2018-10-05T23:21:49.066Z,75.40
2018-10-05T23:24:17.172Z,75.50
2018-10-05T23:26:45.288Z,75.30
2018-10-05T23:29:13.383Z,75.50
2018-10-05T23:31:41.598Z,75.40
2018-10-05T23:34:09.708Z,76.00
2018-10-05T23:36:37.806Z,75.80
2018-10-05T23:39:07.678Z,74.60
2018-10-05T23:41:35.786Z,75.60
2018-10-05T23:44:03.954Z,75.80
2018-10-05T23:46:32.088Z,75.90
2018-10-05T23:49:00.199Z,75.70
2018-10-05T23:51:28.310Z,75.90
2018-10-05T23:53:56.433Z,76.40
2018-10-05T23:56:24.530Z,76.40
2018-10-05T23:58:52.676Z,75.80
